Terminal Aerodrome Forecast
Issued by NWS Louisville, KY

Home | Current Version | Previous Version | Text Only | Print | Product List | Glossary On
Versions: 1 2 3 4 5 6 7 8 9 10 11 12 13 14 15
592
FTUS43 KLMK 240031 AAA
TAFBWG
TAF AMD
KBWG 240031Z 2401/2424 30006KT P6SM VCSH BKN035
     FM240300 27006KT P6SM BKN050
     FM240700 30004KT P6SM SCT050
     FM241700 30008KT P6SM SCT080=

USA.gov is the U.S. government's official web portal to all federal, state and local government web resources and services.